Time;durP1;ratioP1;P1;durP2;ratioP2;P2;SDS_P1;SDS_P2;PMS_P1;PMS_P2;Temp;Humidity;BMP_temperature;BMP_pressure;BME280_temperature;BME280_humidity;BME280_pressure;Samples;Min_cycle;Max_cycle;Signal;HPM_P1;HPM_P2
2022/10/06 00:01:47;;;;;;;0.68;0.68;;;;;;;;;;1776970;79;26224;-56
2022/10/06 00:04:14;;;;;;;0.70;0.70;;;;;;;;;;1800717;78;26222;-56
2022/10/06 00:06:41;;;;;;;0.50;0.50;;;;;;;;;;1782981;79;26287;-57
2022/10/06 00:09:09;;;;;;;0.70;0.70;;;;;;;;;;1771717;79;26240;-56
2022/10/06 00:11:36;;;;;;;0.70;0.70;;;;;;;;;;1776936;78;26217;-55
2022/10/06 00:14:03;;;;;;;0.60;0.60;;;;;;;;;;1799369;78;26324;-56
2022/10/06 00:16:31;;;;;;;0.55;0.55;;;;;;;;;;1783890;79;26310;-54
2022/10/06 00:18:58;;;;;;;0.70;0.70;;;;;;;;;;1783673;79;26310;-56
2022/10/06 00:21:25;;;;;;;0.60;0.60;;;;;;;;;;1802187;79;26770;-57
2022/10/06 00:23:52;;;;;;;0.60;0.60;;;;;;;;;;1772047;79;27493;-55
2022/10/06 00:26:20;;;;;;;0.78;0.78;;;;;;;;;;1786212;79;26277;-56
2022/10/06 00:28:47;;;;;;;0.50;0.50;;;;;;;;;;1782472;79;26297;-56
2022/10/06 00:31:15;;;;;;;0.60;0.60;;;;;;;;;;1783195;79;27396;-55
2022/10/06 00:33:43;;;;;;;0.60;0.60;;;;;;;;;;1789795;79;26247;-55
2022/10/06 00:36:10;;;;;;;0.53;0.53;;;;;;;;;;1768461;79;26293;-55
2022/10/06 00:38:38;;;;;;;0.60;0.60;;;;;;;;;;1774300;79;26289;-56
2022/10/06 00:41:05;;;;;;;0.60;0.60;;;;;;;;;;1764382;79;26839;-60
2022/10/06 00:43:40;;;;;;;0.60;0.60;;;;;;;;;;1776092;79;26285;-57
2022/10/06 00:46:09;;;;;;;0.53;0.53;;;;;;;;;;1760960;79;26314;-55
2022/10/06 00:48:36;;;;;;;0.70;0.70;;;;;;;;;;1760186;79;26297;-57
2022/10/06 00:51:04;;;;;;;0.60;0.60;;;;;;;;;;1761223;79;26333;-55
2022/10/06 00:53:31;;;;;;;0.57;0.57;;;;;;;;;;1791310;79;26670;-57
2022/10/06 00:55:59;;;;;;;0.47;0.47;;;;;;;;;;1774050;79;26368;-57
2022/10/06 00:58:26;;;;;;;0.50;0.50;;;;;;;;;;1767699;79;27365;-57
2022/10/06 01:00:54;;;;;;;0.50;0.50;;;;;;;;;;1799868;79;26248;-56
2022/10/06 01:03:23;;;;;;;0.55;0.55;;;;;;;;;;1789405;79;26343;-56
2022/10/06 01:05:51;;;;;;;0.70;0.70;;;;;;;;;;1788904;79;26262;-57
2022/10/06 01:08:18;;;;;;;0.60;0.60;;;;;;;;;;1787718;79;27223;-58
2022/10/06 01:10:46;;;;;;;0.60;0.60;;;;;;;;;;1780312;79;26297;-55
2022/10/06 01:13:13;;;;;;;0.60;0.60;;;;;;;;;;1773922;79;26284;-56
2022/10/06 01:15:42;;;;;;;0.60;0.60;;;;;;;;;;1788504;79;26738;-57
2022/10/06 01:18:17;;;;;;;0.50;0.50;;;;;;;;;;1786890;79;26768;-57
2022/10/06 01:20:50;;;;;;;0.50;0.50;;;;;;;;;;1770017;79;26302;-57
2022/10/06 01:23:17;;;;;;;0.50;0.50;;;;;;;;;;1801035;78;26347;-57
2022/10/06 01:25:44;;;;;;;0.50;0.50;;;;;;;;;;1780945;79;26396;-56
2022/10/06 01:28:12;;;;;;;0.50;0.50;;;;;;;;;;1797103;79;26290;-57
2022/10/06 01:30:41;;;;;;;0.50;0.50;;;;;;;;;;1801000;79;26264;-55
2022/10/06 01:33:09;;;;;;;0.60;0.60;;;;;;;;;;1761374;79;26364;-57
2022/10/06 01:35:36;;;;;;;0.50;0.50;;;;;;;;;;1761143;79;26863;-57
2022/10/06 01:38:03;;;;;;;0.65;0.65;;;;;;;;;;1767888;79;26287;-57
2022/10/06 01:40:30;;;;;;;0.50;0.50;;;;;;;;;;1786253;79;26286;-56
2022/10/06 01:42:58;;;;;;;0.60;0.60;;;;;;;;;;1786297;79;26344;-57
2022/10/06 01:45:25;;;;;;;0.53;0.53;;;;;;;;;;1761091;79;26254;-56
2022/10/06 01:47:52;;;;;;;0.60;0.60;;;;;;;;;;1781007;79;26284;-55
2022/10/06 01:50:19;;;;;;;0.62;0.62;;;;;;;;;;1780545;79;26275;-57
2022/10/06 01:52:47;;;;;;;0.45;0.45;;;;;;;;;;1797838;79;26368;-57
2022/10/06 01:55:14;;;;;;;0.45;0.45;;;;;;;;;;1781118;79;26365;-57
2022/10/06 01:57:42;;;;;;;0.60;0.60;;;;;;;;;;1761155;79;26348;-57
2022/10/06 02:00:10;;;;;;;0.60;0.60;;;;;;;;;;1785403;79;26290;-58
2022/10/06 02:02:37;;;;;;;0.50;0.50;;;;;;;;;;1774866;79;26293;-56
2022/10/06 02:05:05;;;;;;;0.60;0.60;;;;;;;;;;1784948;79;26854;-57
2022/10/06 02:07:34;;;;;;;0.70;0.70;;;;;;;;;;1776385;79;26371;-57
2022/10/06 02:10:01;;;;;;;0.50;0.50;;;;;;;;;;1772632;79;26302;-57
2022/10/06 02:12:30;;;;;;;0.50;0.50;;;;;;;;;;1794147;79;26762;-56
2022/10/06 02:14:58;;;;;;;0.50;0.50;;;;;;;;;;1803113;79;26353;-56
2022/10/06 02:17:25;;;;;;;0.68;0.68;;;;;;;;;;1788483;79;26263;-57
2022/10/06 02:19:52;;;;;;;0.60;0.60;;;;;;;;;;1796426;78;26323;-57
2022/10/06 02:22:19;;;;;;;0.50;0.50;;;;;;;;;;1801471;78;26301;-57
2022/10/06 02:24:47;;;;;;;0.40;0.40;;;;;;;;;;1800626;79;26226;-57
2022/10/06 02:27:14;;;;;;;0.50;0.50;;;;;;;;;;1793377;79;26354;-57
2022/10/06 02:29:41;;;;;;;0.50;0.50;;;;;;;;;;1793600;79;26253;-56
2022/10/06 02:32:09;;;;;;;0.57;0.57;;;;;;;;;;1804212;78;26240;-57
2022/10/06 02:34:37;;;;;;;0.60;0.60;;;;;;;;;;1800745;79;26336;-57
2022/10/06 02:37:04;;;;;;;0.60;0.60;;;;;;;;;;1792648;79;26292;-56
2022/10/06 02:39:31;;;;;;;0.50;0.50;;;;;;;;;;1791093;78;26366;-56
2022/10/06 02:41:59;;;;;;;0.50;0.50;;;;;;;;;;1773668;79;26243;-56
2022/10/06 02:44:26;;;;;;;0.62;0.62;;;;;;;;;;1789477;78;26245;-56
2022/10/06 02:46:53;;;;;;;0.60;0.60;;;;;;;;;;1809191;78;25662;-56
2022/10/06 02:49:20;;;;;;;0.45;0.45;;;;;;;;;;1779887;79;26674;-56
2022/10/06 02:51:48;;;;;;;0.53;0.53;;;;;;;;;;1790689;79;26757;-57
2022/10/06 02:54:15;;;;;;;0.40;0.40;;;;;;;;;;1802461;79;26691;-57
2022/10/06 02:56:42;;;;;;;0.50;0.50;;;;;;;;;;1800444;79;26380;-56
2022/10/06 02:59:10;;;;;;;0.60;0.60;;;;;;;;;;1799997;78;26213;-58
2022/10/06 03:01:37;;;;;;;0.42;0.42;;;;;;;;;;1785366;78;26198;-57
2022/10/06 03:04:04;;;;;;;0.68;0.68;;;;;;;;;;1773586;79;26681;-57
2022/10/06 03:06:32;;;;;;;0.50;0.50;;;;;;;;;;1792610;79;26303;-57
2022/10/06 03:09:00;;;;;;;0.50;0.50;;;;;;;;;;1774371;79;26231;-57
2022/10/06 03:11:28;;;;;;;0.60;0.60;;;;;;;;;;1796138;78;26748;-57
2022/10/06 03:13:56;;;;;;;0.50;0.50;;;;;;;;;;1794885;79;26275;-56
2022/10/06 03:16:25;;;;;;;0.60;0.60;;;;;;;;;;1799756;78;26359;-57
2022/10/06 03:18:54;;;;;;;0.60;0.60;;;;;;;;;;1800285;79;26320;-57
2022/10/06 03:21:25;;;;;;;0.60;0.60;;;;;;;;;;1796359;79;26264;-55
2022/10/06 03:23:53;;;;;;;0.50;0.50;;;;;;;;;;1772003;79;26787;-57
2022/10/06 03:26:22;;;;;;;0.60;0.60;;;;;;;;;;1777078;79;26366;-57
2022/10/06 03:28:49;;;;;;;0.50;0.50;;;;;;;;;;1794508;78;26214;-57
2022/10/06 03:31:17;;;;;;;0.50;0.50;;;;;;;;;;1779340;79;26241;-57
2022/10/06 03:33:44;;;;;;;0.62;0.62;;;;;;;;;;1784159;79;26227;-56
2022/10/06 03:36:13;;;;;;;0.60;0.60;;;;;;;;;;1798430;78;26244;-56
2022/10/06 03:38:40;;;;;;;0.60;0.60;;;;;;;;;;1791480;79;26234;-57
2022/10/06 03:41:12;;;;;;;0.50;0.50;;;;;;;;;;1780017;78;26705;-55
2022/10/06 03:43:40;;;;;;;0.70;0.70;;;;;;;;;;1785604;79;26246;-56
2022/10/06 03:46:09;;;;;;;0.55;0.55;;;;;;;;;;1771503;79;26263;-55
2022/10/06 03:48:36;;;;;;;0.57;0.57;;;;;;;;;;1772743;79;26526;-56
2022/10/06 03:51:08;;;;;;;0.60;0.60;;;;;;;;;;1774959;79;26275;-57
2022/10/06 03:53:35;;;;;;;0.60;0.60;;;;;;;;;;1788407;79;26279;-56
2022/10/06 03:56:07;;;;;;;0.70;0.70;;;;;;;;;;1778149;79;26242;-57
2022/10/06 03:58:36;;;;;;;0.60;0.60;;;;;;;;;;1771579;79;26247;-56
2022/10/06 04:01:04;;;;;;;0.60;0.60;;;;;;;;;;1775124;79;26858;-58
2022/10/06 04:03:32;;;;;;;0.62;0.62;;;;;;;;;;1792072;79;26220;-57
2022/10/06 04:06:00;;;;;;;0.70;0.70;;;;;;;;;;1787776;79;26269;-57
2022/10/06 04:08:29;;;;;;;0.70;0.70;;;;;;;;;;1772469;79;26183;-56
2022/10/06 04:10:58;;;;;;;0.68;0.68;;;;;;;;;;1775049;79;26268;-55
2022/10/06 04:13:25;;;;;;;0.78;0.78;;;;;;;;;;1780375;79;26295;-57
2022/10/06 04:15:52;;;;;;;0.70;0.70;;;;;;;;;;1771381;79;26330;-57
2022/10/06 04:18:19;;;;;;;0.60;0.60;;;;;;;;;;1779273;79;26296;-56
2022/10/06 04:20:47;;;;;;;0.70;0.70;;;;;;;;;;1801238;78;26785;-57
2022/10/06 04:23:15;;;;;;;0.60;0.60;;;;;;;;;;1777592;79;26843;-57
2022/10/06 04:25:42;;;;;;;0.70;0.70;;;;;;;;;;1784891;79;26315;-57
2022/10/06 04:28:09;;;;;;;0.72;0.72;;;;;;;;;;1773108;79;26302;-57
2022/10/06 04:30:37;;;;;;;0.70;0.70;;;;;;;;;;1771562;79;26836;-57
2022/10/06 04:33:06;;;;;;;0.80;0.80;;;;;;;;;;1789092;79;26302;-57
2022/10/06 04:35:33;;;;;;;0.53;0.53;;;;;;;;;;1789208;79;26776;-57
2022/10/06 04:38:00;;;;;;;0.80;0.80;;;;;;;;;;1786459;79;26346;-57
2022/10/06 04:40:28;;;;;;;0.70;0.70;;;;;;;;;;1774613;79;26242;-57
2022/10/06 04:42:56;;;;;;;0.70;0.70;;;;;;;;;;1772711;79;26286;-57
2022/10/06 04:45:23;;;;;;;0.62;0.62;;;;;;;;;;1805216;79;26318;-56
2022/10/06 04:47:50;;;;;;;0.60;0.60;;;;;;;;;;1797362;79;26820;-58
2022/10/06 04:50:18;;;;;;;0.80;0.80;;;;;;;;;;1763095;79;26754;-57
2022/10/06 04:52:45;;;;;;;0.80;0.80;;;;;;;;;;1763129;79;26831;-57
2022/10/06 04:55:12;;;;;;;0.60;0.60;;;;;;;;;;1764109;79;27611;-57
2022/10/06 04:57:40;;;;;;;0.75;0.75;;;;;;;;;;1763256;79;26293;-56
2022/10/06 05:00:25;;;;;;;0.70;0.70;;;;;;;;;;1776539;79;26777;-57
2022/10/06 05:02:54;;;;;;;0.70;0.70;;;;;;;;;;1760963;79;26309;-57
2022/10/06 05:05:22;;;;;;;0.70;0.70;;;;;;;;;;1764973;79;26309;-57
2022/10/06 05:07:49;;;;;;;0.70;0.70;;;;;;;;;;1768834;79;26394;-57
2022/10/06 05:10:16;;;;;;;0.70;0.70;;;;;;;;;;1769222;79;26293;-57
2022/10/06 05:12:44;;;;;;;0.70;0.70;;;;;;;;;;1775995;79;26317;-57
2022/10/06 05:15:11;;;;;;;0.65;0.65;;;;;;;;;;1765644;79;26341;-57
2022/10/06 05:17:38;;;;;;;0.70;0.70;;;;;;;;;;1761298;79;26297;-57
2022/10/06 05:20:06;;;;;;;0.70;0.70;;;;;;;;;;1770341;79;26341;-57
2022/10/06 05:22:34;;;;;;;0.80;0.80;;;;;;;;;;1785772;79;26341;-57
2022/10/06 05:25:01;;;;;;;0.68;0.68;;;;;;;;;;1775894;79;26766;-57
2022/10/06 05:27:28;;;;;;;0.70;0.70;;;;;;;;;;1776007;78;26234;-57
2022/10/06 05:29:55;;;;;;;0.80;0.80;;;;;;;;;;1800842;79;26284;-57
2022/10/06 05:32:23;;;;;;;0.60;0.60;;;;;;;;;;1798802;79;26248;-57
2022/10/06 05:34:50;;;;;;;0.70;0.70;;;;;;;;;;1776145;78;26338;-57
2022/10/06 05:37:17;;;;;;;0.70;0.70;;;;;;;;;;1781741;79;26260;-57
2022/10/06 05:39:45;;;;;;;0.80;0.80;;;;;;;;;;1772000;79;26287;-55
2022/10/06 05:42:12;;;;;;;0.60;0.60;;;;;;;;;;1771734;79;26703;-57
2022/10/06 05:44:40;;;;;;;0.80;0.80;;;;;;;;;;1771609;79;26231;-57
2022/10/06 05:47:07;;;;;;;0.70;0.70;;;;;;;;;;1777582;79;26291;-58
2022/10/06 05:49:34;;;;;;;0.60;0.60;;;;;;;;;;1773012;79;26301;-57
2022/10/06 05:52:01;;;;;;;0.60;0.60;;;;;;;;;;1775150;79;26272;-57
2022/10/06 05:54:29;;;;;;;0.42;0.42;;;;;;;;;;1795984;78;26284;-57
2022/10/06 05:56:56;;;;;;;0.60;0.60;;;;;;;;;;1779877;79;26837;-57
2022/10/06 05:59:23;;;;;;;0.60;0.60;;;;;;;;;;1781952;79;26719;-58
2022/10/06 06:01:51;;;;;;;0.55;0.55;;;;;;;;;;1771713;79;26692;-57
2022/10/06 06:04:19;;;;;;;0.50;0.50;;;;;;;;;;1771231;79;26224;-57
2022/10/06 06:06:47;;;;;;;0.50;0.50;;;;;;;;;;1779166;79;26324;-57
2022/10/06 06:09:19;;;;;;;0.50;0.50;;;;;;;;;;1786497;79;26242;-58
2022/10/06 06:11:47;;;;;;;0.70;0.70;;;;;;;;;;1781305;78;26373;-57
2022/10/06 06:14:16;;;;;;;0.50;0.50;;;;;;;;;;1771430;79;26547;-57
2022/10/06 06:16:44;;;;;;;0.50;0.50;;;;;;;;;;1770200;79;26267;-57
2022/10/06 06:19:12;;;;;;;0.40;0.40;;;;;;;;;;1789587;79;26245;-57
2022/10/06 06:21:39;;;;;;;0.40;0.40;;;;;;;;;;1788107;79;26380;-58
2022/10/06 06:24:07;;;;;;;0.50;0.50;;;;;;;;;;1772691;79;26384;-58
2022/10/06 06:26:35;;;;;;;0.40;0.40;;;;;;;;;;1752376;79;26388;-57
2022/10/06 06:29:04;;;;;;;0.50;0.50;;;;;;;;;;1772172;79;26576;-57
2022/10/06 06:31:32;;;;;;;0.40;0.40;;;;;;;;;;1752535;79;26726;-57
2022/10/06 06:34:01;;;;;;;0.35;0.35;;;;;;;;;;1764557;79;26364;-57
2022/10/06 06:36:35;;;;;;;0.40;0.40;;;;;;;;;;1759654;79;26360;-57
2022/10/06 06:38:59;;;;;;;0.30;0.30;;;;;;;;;;1777538;79;26287;-59
2022/10/06 06:41:27;;;;;;;0.30;0.30;;;;;;;;;;1752620;79;26257;-57
2022/10/06 06:43:56;;;;;;;0.40;0.40;;;;;;;;;;1752576;79;26305;-57
2022/10/06 06:46:25;;;;;;;0.40;0.40;;;;;;;;;;1767186;79;26875;-57
2022/10/06 06:48:53;;;;;;;0.30;0.30;;;;;;;;;;1752465;79;26376;-57
2022/10/06 06:51:22;;;;;;;0.30;0.30;;;;;;;;;;1756226;79;26275;-57
2022/10/06 06:53:51;;;;;;;0.40;0.40;;;;;;;;;;1785633;79;26291;-57
2022/10/06 06:56:24;;;;;;;0.40;0.40;;;;;;;;;;1767658;79;26306;-55
2022/10/06 06:58:49;;;;;;;0.30;0.30;;;;;;;;;;1761827;79;26301;-57
2022/10/06 07:01:17;;;;;;;0.33;0.33;;;;;;;;;;1752584;79;26314;-57
2022/10/06 07:03:47;;;;;;;0.30;0.30;;;;;;;;;;1752871;79;26776;-57
2022/10/06 07:06:15;;;;;;;0.37;0.37;;;;;;;;;;1757745;79;26813;-57
2022/10/06 07:08:44;;;;;;;0.30;0.30;;;;;;;;;;1760315;79;26341;-57
2022/10/06 07:11:12;;;;;;;0.20;0.20;;;;;;;;;;1773032;79;26283;-57
2022/10/06 07:13:40;;;;;;;0.30;0.30;;;;;;;;;;1771366;79;26277;-58
2022/10/06 07:27:12;;;;;;;0.30;0.30;;;;;;;;;;1759660;79;26883;-57
2022/10/06 07:29:39;;;;;;;0.25;0.25;;;;;;;;;;1777169;79;26311;-54
2022/10/06 07:32:07;;;;;;;0.30;0.30;;;;;;;;;;1758227;79;26594;-57
2022/10/06 07:34:35;;;;;;;0.20;0.20;;;;;;;;;;1758810;79;26220;-57
2022/10/06 07:37:03;;;;;;;0.20;0.20;;;;;;;;;;1773663;79;27198;-57
2022/10/06 07:39:31;;;;;;;0.10;0.10;;;;;;;;;;1787046;79;26285;-58
2022/10/06 07:41:58;;;;;;;0.23;0.23;;;;;;;;;;1787028;79;26765;-56
2022/10/06 07:44:25;;;;;;;0.20;0.20;;;;;;;;;;1787037;79;26655;-57
2022/10/06 07:46:52;;;;;;;0.20;0.20;;;;;;;;;;1787340;79;26703;-57
2022/10/06 07:49:20;;;;;;;0.10;0.10;;;;;;;;;;1788000;79;26738;-57
2022/10/06 07:51:47;;;;;;;0.30;0.30;;;;;;;;;;1805390;79;26347;-57
2022/10/06 07:54:15;;;;;;;0.20;0.20;;;;;;;;;;1802381;79;26685;-57
2022/10/06 07:56:42;;;;;;;0.20;0.20;;;;;;;;;;1810018;79;26679;-57
2022/10/06 07:59:09;;;;;;;0.30;0.30;;;;;;;;;;1786660;79;26759;-57
2022/10/06 08:01:38;;;;;;;0.17;0.17;;;;;;;;;;1782073;79;26728;-57
2022/10/06 08:04:05;;;;;;;0.20;0.20;;;;;;;;;;1772784;79;26307;-57
2022/10/06 08:06:33;;;;;;;0.20;0.20;;;;;;;;;;1781206;79;26270;-57
2022/10/06 08:09:00;;;;;;;0.20;0.20;;;;;;;;;;1774809;79;26296;-57
2022/10/06 08:11:27;;;;;;;0.28;0.28;;;;;;;;;;1774817;79;26718;-58
2022/10/06 08:13:55;;;;;;;0.20;0.20;;;;;;;;;;1781386;79;26261;-58
2022/10/06 08:16:28;;;;;;;0.10;0.10;;;;;;;;;;1768459;79;26291;-57
2022/10/06 08:18:53;;;;;;;0.20;0.20;;;;;;;;;;1785669;79;26809;-57
2022/10/06 08:21:28;;;;;;;0.30;0.30;;;;;;;;;;1793752;79;26266;-56
2022/10/06 08:23:56;;;;;;;0.10;0.10;;;;;;;;;;1787943;79;26648;-58
2022/10/06 08:26:25;;;;;;;0.23;0.23;;;;;;;;;;1771442;79;26415;-58
2022/10/06 08:28:54;;;;;;;0.10;0.10;;;;;;;;;;1759096;79;26264;-58
2022/10/06 08:31:22;;;;;;;0.20;0.20;;;;;;;;;;1794108;79;26307;-58
2022/10/06 08:33:51;;;;;;;0.28;0.28;;;;;;;;;;1776851;79;26332;-58
2022/10/06 08:36:19;;;;;;;0.20;0.20;;;;;;;;;;1784333;78;26332;-57
2022/10/06 08:38:49;;;;;;;0.30;0.30;;;;;;;;;;1769250;79;26303;-57
2022/10/06 08:41:17;;;;;;;0.10;0.10;;;;;;;;;;1758312;79;26337;-57
2022/10/06 08:43:49;;;;;;;0.23;0.23;;;;;;;;;;1773669;79;26440;-57
2022/10/06 08:46:17;;;;;;;0.30;0.30;;;;;;;;;;1761211;79;26350;-56
2022/10/06 08:48:44;;;;;;;0.15;0.15;;;;;;;;;;1782670;79;26296;-56
2022/10/06 08:51:18;;;;;;;0.20;0.20;;;;;;;;;;1788361;79;26281;-57
2022/10/06 08:53:47;;;;;;;0.20;0.20;;;;;;;;;;1802286;78;26688;-57
2022/10/06 08:56:19;;;;;;;0.10;0.10;;;;;;;;;;1781191;79;26281;-55
2022/10/06 08:58:49;;;;;;;0.20;0.20;;;;;;;;;;1784436;79;26310;-57
2022/10/06 09:01:18;;;;;;;0.10;0.10;;;;;;;;;;1784943;79;27209;-57
2022/10/06 09:03:47;;;;;;;0.20;0.20;;;;;;;;;;1786733;79;26309;-57
2022/10/06 09:06:16;;;;;;;0.20;0.20;;;;;;;;;;1786398;79;26904;-57
2022/10/06 09:08:49;;;;;;;0.10;0.10;;;;;;;;;;1767195;79;26729;-57
2022/10/06 09:11:24;;;;;;;0.10;0.10;;;;;;;;;;1783275;79;26317;-58
2022/10/06 09:13:53;;;;;;;0.17;0.17;;;;;;;;;;1767217;79;26351;-58
2022/10/06 09:16:21;;;;;;;0.20;0.20;;;;;;;;;;1785341;79;26328;-57
2022/10/06 09:18:51;;;;;;;0.30;0.30;;;;;;;;;;1784745;79;26277;-57
2022/10/06 09:21:20;;;;;;;0.10;0.10;;;;;;;;;;1798169;79;26864;-57
2022/10/06 09:23:49;;;;;;;0.15;0.15;;;;;;;;;;1779912;79;27013;-57
2022/10/06 09:26:27;;;;;;;0.23;0.23;;;;;;;;;;1780954;79;26557;-57
2022/10/06 09:28:53;;;;;;;0.10;0.10;;;;;;;;;;1752131;79;26699;-58
2022/10/06 09:31:25;;;;;;;0.10;0.10;;;;;;;;;;1769965;79;26659;-56
2022/10/06 09:33:54;;;;;;;0.23;0.20;;;;;;;;;;1786571;79;26568;-58
2022/10/06 09:36:22;;;;;;;0.20;0.20;;;;;;;;;;1770393;79;26298;-58
2022/10/06 09:38:56;;;;;;;0.13;0.13;;;;;;;;;;1760962;79;26405;-57
2022/10/06 09:41:28;;;;;;;0.25;0.25;;;;;;;;;;1752202;79;26752;-58
2022/10/06 09:43:57;;;;;;;0.10;0.10;;;;;;;;;;1752600;79;26781;-58
2022/10/06 09:46:26;;;;;;;0.20;0.20;;;;;;;;;;1779338;79;27517;-58
2022/10/06 09:49:06;;;;;;;0.20;0.20;;;;;;;;;;1761309;79;26759;-58
2022/10/06 09:51:35;;;;;;;0.10;0.10;;;;;;;;;;1743250;79;26796;-57
2022/10/06 09:54:09;;;;;;;0.20;0.20;;;;;;;;;;1762348;79;26305;-58
2022/10/06 09:56:37;;;;;;;0.10;0.10;;;;;;;;;;1772211;79;26309;-56
2022/10/06 09:59:06;;;;;;;0.20;0.20;;;;;;;;;;1760726;79;26283;-57
2022/10/06 10:01:33;;;;;;;0.30;0.30;;;;;;;;;;1752382;79;26297;-57
2022/10/06 10:04:05;;;;;;;0.20;0.20;;;;;;;;;;1764872;79;26338;-57
2022/10/06 10:06:36;;;;;;;0.20;0.20;;;;;;;;;;1775231;79;26739;-57
2022/10/06 10:09:13;;;;;;;0.20;0.20;;;;;;;;;;1755065;79;26310;-57
2022/10/06 10:14:26;;;;;;;0.20;0.20;;;;;;;;;;1787469;79;26338;-57
2022/10/06 10:16:54;;;;;;;0.28;0.28;;;;;;;;;;1761552;79;26266;-57
2022/10/06 10:19:28;;;;;;;0.33;0.30;;;;;;;;;;1772336;79;26321;-57
2022/10/06 10:21:56;;;;;;;0.15;0.15;;;;;;;;;;1768728;79;26241;-58
2022/10/06 10:24:28;;;;;;;0.20;0.20;;;;;;;;;;1766848;79;27593;-57
2022/10/06 10:27:03;;;;;;;0.20;0.20;;;;;;;;;;1762013;79;26250;-58
2022/10/06 10:29:49;;;;;;;0.23;0.23;;;;;;;;;;1751139;79;26731;-58
2022/10/06 10:32:17;;;;;;;0.20;0.20;;;;;;;;;;1772281;79;26645;-57
2022/10/06 10:34:46;;;;;;;0.10;0.10;;;;;;;;;;1767179;79;26282;-58
2022/10/06 10:37:24;;;;;;;0.20;0.20;;;;;;;;;;1766574;79;26555;-58
2022/10/06 10:40:11;;;;;;;0.30;0.30;;;;;;;;;;1762366;79;26267;-58
2022/10/06 10:42:49;;;;;;;0.20;0.20;;;;;;;;;;1707642;81;26464;-57
2022/10/06 10:45:27;;;;;;;0.30;0.30;;;;;;;;;;1711030;81;26301;-58
2022/10/06 10:47:55;;;;;;;0.20;0.20;;;;;;;;;;1722254;79;26849;-58
2022/10/06 10:50:24;;;;;;;0.20;0.20;;;;;;;;;;1752580;79;26278;-57
2022/10/06 10:52:52;;;;;;;0.30;0.30;;;;;;;;;;1771012;79;26275;-58
2022/10/06 10:55:38;;;;;;;0.23;0.23;;;;;;;;;;1782656;79;26293;-58
2022/10/06 10:58:09;;;;;;;0.10;0.10;;;;;;;;;;1770715;79;26355;-55
2022/10/06 11:00:38;;;;;;;0.20;0.20;;;;;;;;;;1752099;79;26298;-57
2022/10/06 11:03:05;;;;;;;0.10;0.10;;;;;;;;;;1752238;79;26376;-57
2022/10/06 11:05:37;;;;;;;0.30;0.30;;;;;;;;;;1771722;79;26283;-57
2022/10/06 11:08:07;;;;;;;0.20;0.20;;;;;;;;;;1765392;79;26303;-57
2022/10/06 11:10:36;;;;;;;0.20;0.20;;;;;;;;;;1773296;79;26310;-57
2022/10/06 11:13:17;;;;;;;0.30;0.30;;;;;;;;;;1777909;79;26741;-57
2022/10/06 11:15:58;;;;;;;0.10;0.10;;;;;;;;;;1762868;79;26283;-56
2022/10/06 11:18:30;;;;;;;0.20;0.20;;;;;;;;;;1780807;79;26377;-57
2022/10/06 11:21:04;;;;;;;0.20;0.20;;;;;;;;;;1780784;79;26282;-57
2022/10/06 11:23:45;;;;;;;0.25;0.25;;;;;;;;;;1774608;78;26730;-56
2022/10/06 11:26:14;;;;;;;0.10;0.10;;;;;;;;;;1753378;79;27280;-57
2022/10/06 11:28:46;;;;;;;0.30;0.30;;;;;;;;;;1752619;79;26309;-54
2022/10/06 11:31:24;;;;;;;0.17;0.17;;;;;;;;;;1776526;79;26264;-56
2022/10/06 11:33:53;;;;;;;0.20;0.20;;;;;;;;;;1759298;79;26316;-58
2022/10/06 11:36:38;;;;;;;0.15;0.15;;;;;;;;;;1758295;79;27368;-55
2022/10/06 11:39:07;;;;;;;0.20;0.20;;;;;;;;;;1758366;79;26238;-56
2022/10/06 11:41:36;;;;;;;0.20;0.20;;;;;;;;;;1751044;79;26734;-55
2022/10/06 11:44:05;;;;;;;0.10;0.10;;;;;;;;;;1766406;79;26815;-56
2022/10/06 11:46:34;;;;;;;0.28;0.28;;;;;;;;;;1771200;79;26310;-57
2022/10/06 11:49:19;;;;;;;0.13;0.13;;;;;;;;;;1763128;79;26291;-57
2022/10/06 11:51:46;;;;;;;0.20;0.20;;;;;;;;;;1767417;79;26271;-58
2022/10/06 11:54:18;;;;;;;0.20;0.20;;;;;;;;;;1760833;79;26348;-57
2022/10/06 11:56:45;;;;;;;0.20;0.20;;;;;;;;;;1747731;79;26291;-57
2022/10/06 11:59:14;;;;;;;0.10;0.10;;;;;;;;;;1802157;79;26352;-57
2022/10/06 12:01:46;;;;;;;0.20;0.20;;;;;;;;;;1781810;79;26295;-57
2022/10/06 12:04:15;;;;;;;0.20;0.20;;;;;;;;;;1781699;79;26307;-57
2022/10/06 12:06:47;;;;;;;0.10;0.10;;;;;;;;;;1767177;79;26290;-57
2022/10/06 12:09:30;;;;;;;0.28;0.20;;;;;;;;;;1767381;79;26371;-57
2022/10/06 12:12:02;;;;;;;0.20;0.20;;;;;;;;;;1776118;79;26294;-58
2022/10/06 12:14:31;;;;;;;0.25;0.25;;;;;;;;;;1776155;79;26294;-57
2022/10/06 12:16:59;;;;;;;0.10;0.10;;;;;;;;;;1778890;79;26291;-56
2022/10/06 12:19:40;;;;;;;0.30;0.30;;;;;;;;;;1780670;79;26223;-58
2022/10/06 12:22:09;;;;;;;0.13;0.13;;;;;;;;;;1800886;79;26254;-58
2022/10/06 12:24:41;;;;;;;0.10;0.10;;;;;;;;;;1789548;78;26359;-58
2022/10/06 12:27:22;;;;;;;0.20;0.20;;;;;;;;;;1792461;79;26222;-56
2022/10/06 12:29:57;;;;;;;0.15;0.15;;;;;;;;;;1800102;79;26234;-58
2022/10/06 12:32:42;;;;;;;0.20;0.20;;;;;;;;;;1798211;78;26762;-56
2022/10/06 12:35:26;;;;;;;0.20;0.20;;;;;;;;;;1781210;79;26700;-56
2022/10/06 12:37:55;;;;;;;0.10;0.10;;;;;;;;;;1782093;79;26640;-56
2022/10/06 12:40:50;;;;;;;0.10;0.10;;;;;;;;;;1783025;79;26708;-56
2022/10/06 12:43:17;;;;;;;0.10;0.10;;;;;;;;;;1769880;79;26551;-57
2022/10/06 12:45:46;;;;;;;0.10;0.10;;;;;;;;;;1781191;79;26255;-57
2022/10/06 12:48:15;;;;;;;0.13;0.13;;;;;;;;;;1781027;79;26235;-56
2022/10/06 12:50:43;;;;;;;0.20;0.20;;;;;;;;;;1807764;79;26300;-57
2022/10/06 12:53:15;;;;;;;0.15;0.15;;;;;;;;;;1794238;79;26670;-56
2022/10/06 12:55:44;;;;;;;0.20;0.20;;;;;;;;;;1800541;79;26328;-57
2022/10/06 12:58:22;;;;;;;0.10;0.10;;;;;;;;;;1799832;78;26864;-57
2022/10/06 13:00:50;;;;;;;0.20;0.20;;;;;;;;;;1802030;79;26231;-57
2022/10/06 13:03:18;;;;;;;0.10;0.10;;;;;;;;;;1794659;79;26705;-57
2022/10/06 13:05:53;;;;;;;0.10;0.10;;;;;;;;;;1785043;79;26247;-58
2022/10/06 13:08:22;;;;;;;0.10;0.10;;;;;;;;;;1779919;79;26316;-57
2022/10/06 13:10:49;;;;;;;0.03;0.03;;;;;;;;;;1795740;79;26275;-57
2022/10/06 13:13:26;;;;;;;0.05;0.05;;;;;;;;;;1790853;79;26109;-57
2022/10/06 13:15:59;;;;;;;0.17;0.17;;;;;;;;;;1793723;79;26298;-58
2022/10/06 13:18:27;;;;;;;0.10;0.10;;;;;;;;;;1800517;79;26302;-58
2022/10/06 13:20:56;;;;;;;0.20;0.20;;;;;;;;;;1801063;79;26299;-58
2022/10/06 13:23:33;;;;;;;0.10;0.10;;;;;;;;;;1775549;79;26704;-55
2022/10/06 13:26:08;;;;;;;0.23;0.23;;;;;;;;;;1779766;79;26239;-57
2022/10/06 13:28:37;;;;;;;0.20;0.20;;;;;;;;;;1770050;79;26310;-55
2022/10/06 13:31:25;;;;;;;0.10;0.10;;;;;;;;;;1791598;78;26239;-57
2022/10/06 13:34:12;;;;;;;0.10;0.10;;;;;;;;;;1771543;79;26684;-57
2022/10/06 13:36:40;;;;;;;0.20;0.20;;;;;;;;;;1775587;79;26325;-57
2022/10/06 13:39:15;;;;;;;0.10;0.10;;;;;;;;;;1773687;79;26187;-57
2022/10/06 13:41:49;;;;;;;0.25;0.25;;;;;;;;;;1770571;79;26561;-57
2022/10/06 13:44:24;;;;;;;0.20;0.20;;;;;;;;;;1771276;79;26297;-58
2022/10/06 13:46:53;;;;;;;0.17;0.17;;;;;;;;;;1771231;79;26775;-57
2022/10/06 13:49:24;;;;;;;0.25;0.25;;;;;;;;;;1777206;79;26283;-57
2022/10/06 13:51:53;;;;;;;0.23;0.23;;;;;;;;;;1775286;79;26270;-57
2022/10/06 13:54:31;;;;;;;0.20;0.20;;;;;;;;;;1774963;79;27339;-56
2022/10/06 13:56:58;;;;;;;0.20;0.20;;;;;;;;;;1789059;78;26675;-55
2022/10/06 13:59:27;;;;;;;0.20;0.20;;;;;;;;;;1798648;79;26210;-55
2022/10/06 14:01:55;;;;;;;0.20;0.20;;;;;;;;;;1779013;79;26318;-57
2022/10/06 14:04:23;;;;;;;0.20;0.20;;;;;;;;;;1792501;78;26705;-57
2022/10/06 14:06:51;;;;;;;0.15;0.15;;;;;;;;;;1796218;79;26256;-57
2022/10/06 14:09:23;;;;;;;0.20;0.20;;;;;;;;;;1800859;79;26703;-57
2022/10/06 14:11:51;;;;;;;0.20;0.20;;;;;;;;;;1785228;79;26230;-57
2022/10/06 14:14:18;;;;;;;0.37;0.37;;;;;;;;;;1790577;79;26306;-57
2022/10/06 14:16:48;;;;;;;0.20;0.20;;;;;;;;;;1801403;78;26248;-57
2022/10/06 14:19:35;;;;;;;0.20;0.20;;;;;;;;;;1790611;79;26285;-57
2022/10/06 14:22:04;;;;;;;0.17;0.17;;;;;;;;;;1789976;79;26365;-57
2022/10/06 14:24:36;;;;;;;0.20;0.20;;;;;;;;;;1779552;78;26311;-57
2022/10/06 14:27:01;;;;;;;0.20;0.20;;;;;;;;;;1781010;79;26239;-56
2022/10/06 14:29:30;;;;;;;0.30;0.30;;;;;;;;;;1784221;79;26772;-57
2022/10/06 14:32:08;;;;;;;0.72;0.23;;;;;;;;;;1775409;79;26298;-57
2022/10/06 14:34:35;;;;;;;0.20;0.20;;;;;;;;;;1756495;79;26375;-57
2022/10/06 14:37:02;;;;;;;0.20;0.20;;;;;;;;;;1776207;79;26268;-57
2022/10/06 14:39:29;;;;;;;0.20;0.20;;;;;;;;;;1767772;79;26753;-56
2022/10/06 14:41:57;;;;;;;0.30;0.30;;;;;;;;;;1767273;79;26769;-57
2022/10/06 14:44:24;;;;;;;0.20;0.20;;;;;;;;;;1771810;79;26362;-57
2022/10/06 14:46:52;;;;;;;0.20;0.20;;;;;;;;;;1784943;79;26363;-57
2022/10/06 14:49:20;;;;;;;0.20;0.20;;;;;;;;;;1767942;79;26964;-58
2022/10/06 14:51:48;;;;;;;0.33;0.33;;;;;;;;;;1782279;79;26286;-56
2022/10/06 14:54:16;;;;;;;0.20;0.20;;;;;;;;;;1766453;79;26814;-57
2022/10/06 14:56:43;;;;;;;0.30;0.30;;;;;;;;;;1770318;79;26306;-57
2022/10/06 14:59:15;;;;;;;0.33;0.33;;;;;;;;;;1771913;79;26279;-56
2022/10/06 15:01:41;;;;;;;0.20;0.20;;;;;;;;;;1783223;79;26732;-57
2022/10/06 15:04:12;;;;;;;1.12;0.40;;;;;;;;;;1772439;79;26318;-55
2022/10/06 15:09:26;;;;;;;0.20;0.20;;;;;;;;;;1764179;79;26396;-56
2022/10/06 15:11:53;;;;;;;0.23;0.20;;;;;;;;;;1771165;79;26343;-57
2022/10/06 15:14:21;;;;;;;0.20;0.20;;;;;;;;;;1761577;79;26738;-57